Time;durP1;ratioP1;P1;durP2;ratioP2;P2;SDS_P1;SDS_P2;PMS_P1;PMS_P2;Temp;Humidity;BMP_temperature;BMP_pressure;BME280_temperature;BME280_humidity;BME280_pressure;Samples;Min_cycle;Max_cycle;Signal;HPM_P1;HPM_P2
2021/03/22 00:00:16;;;;;;;4.65;1.50;;;3.80;1.00;;;;;;4964547;28;20310;-78
2021/03/22 00:02:43;;;;;;;1.33;1.23;;;3.80;1.00;;;;;;4969173;28;20232;-80
2021/03/22 00:05:10;;;;;;;2.25;1.20;;;3.70;1.00;;;;;;4986899;28;20220;-79
2021/03/22 00:07:37;;;;;;;3.47;1.58;;;3.70;1.00;;;;;;4976034;28;20426;-78
2021/03/22 00:10:04;;;;;;;2.67;1.83;;;3.70;1.00;;;;;;4995181;28;20212;-78
2021/03/22 00:12:30;;;;;;;2.38;1.40;;;3.60;1.00;;;;;;4988866;28;20223;-78
2021/03/22 00:14:56;;;;;;;2.38;1.15;;;3.60;1.00;;;;;;4984729;28;20240;-78
2021/03/22 00:17:22;;;;;;;2.03;1.10;;;3.60;1.00;;;;;;4999324;28;20232;-78
2021/03/22 00:19:49;;;;;;;1.70;1.23;;;3.60;1.00;;;;;;4990010;28;20303;-78
2021/03/22 00:22:16;;;;;;;4.63;1.38;;;3.60;1.00;;;;;;4990235;28;20310;-78
2021/03/22 00:24:42;;;;;;;3.75;1.80;;;3.60;1.00;;;;;;4970309;28;20296;-78
2021/03/22 00:27:08;;;;;;;6.60;2.17;;;3.50;1.00;;;;;;4980304;28;20251;-77
2021/03/22 00:29:35;;;;;;;4.60;1.30;;;3.50;1.00;;;;;;4956210;28;20343;-79
2021/03/22 00:32:01;;;;;;;1.75;0.85;;;3.50;1.00;;;;;;4967162;28;20327;-78
2021/03/22 00:34:28;;;;;;;3.08;1.10;;;3.50;1.00;;;;;;4964989;28;20228;-79
2021/03/22 00:36:55;;;;;;;2.10;1.10;;;3.50;1.00;;;;;;4972312;28;20228;-79
2021/03/22 00:39:22;;;;;;;1.33;1.23;;;3.50;1.00;;;;;;4963719;28;20359;-80
2021/03/22 00:41:48;;;;;;;1.80;1.17;;;3.40;1.00;;;;;;4951214;28;20260;-79
2021/03/22 00:44:15;;;;;;;3.30;1.00;;;3.50;1.00;;;;;;4966953;28;20247;-78
2021/03/22 00:46:41;;;;;;;2.92;1.80;;;3.40;1.00;;;;;;4972610;28;20229;-77
2021/03/22 00:49:07;;;;;;;3.58;1.38;;;3.40;1.00;;;;;;4956934;28;20334;-78
2021/03/22 00:51:34;;;;;;;2.53;1.52;;;3.40;1.00;;;;;;4974965;28;20312;-79
2021/03/22 00:54:01;;;;;;;2.10;1.20;;;3.40;1.00;;;;;;4974665;28;20595;-77
2021/03/22 00:56:28;;;;;;;6.30;1.55;;;3.40;1.00;;;;;;4948907;28;21090;-77
2021/03/22 00:58:54;;;;;;;1.88;1.20;;;3.40;1.00;;;;;;4982310;28;20251;-78
2021/03/22 01:01:20;;;;;;;2.95;1.83;;;3.30;1.00;;;;;;4961657;28;20220;-79
2021/03/22 01:03:46;;;;;;;2.60;1.77;;;3.30;1.00;;;;;;4974581;28;20248;-80
2021/03/22 01:06:13;;;;;;;3.88;2.10;;;3.30;1.00;;;;;;4961985;28;20386;-78
2021/03/22 01:08:41;;;;;;;1.67;1.35;;;3.20;1.00;;;;;;4977105;28;20239;-78
2021/03/22 01:11:11;;;;;;;4.15;2.35;;;3.20;1.00;;;;;;4969363;28;20221;-76
2021/03/22 01:13:39;;;;;;;3.55;1.70;;;3.20;1.00;;;;;;4977603;28;20236;-81
2021/03/22 01:16:06;;;;;;;3.67;1.85;;;3.20;1.00;;;;;;4952104;28;20321;-78
2021/03/22 01:18:36;;;;;;;2.42;1.50;;;3.20;1.00;;;;;;4985788;28;20685;-80
2021/03/22 01:21:11;;;;;;;3.90;2.17;;;3.20;1.00;;;;;;4983981;28;20212;-78
2021/03/22 01:23:37;;;;;;;3.05;1.70;;;3.20;1.00;;;;;;4988821;28;20230;-78
2021/03/22 01:26:06;;;;;;;3.08;2.30;;;3.20;1.00;;;;;;4978235;28;20220;-78
2021/03/22 01:28:34;;;;;;;3.53;2.05;;;3.20;1.00;;;;;;4979876;28;20240;-79
2021/03/22 01:31:04;;;;;;;5.05;2.22;;;3.20;1.00;;;;;;4979742;28;20235;-78
2021/03/22 01:33:35;;;;;;;4.32;2.15;;;3.20;1.00;;;;;;4987655;28;20228;-79
2021/03/22 01:36:05;;;;;;;3.25;1.92;;;3.10;1.00;;;;;;4972520;28;20872;-77
2021/03/22 01:38:32;;;;;;;5.03;2.45;;;3.10;1.00;;;;;;4985767;28;20216;-77
2021/03/22 01:41:07;;;;;;;5.15;2.55;;;3.10;1.00;;;;;;4992700;28;20293;-78
2021/03/22 01:44:00;;;;;;;3.65;2.00;;;3.10;1.00;;;;;;4981163;28;20276;-78
2021/03/22 01:46:27;;;;;;;3.58;2.05;;;3.10;1.00;;;;;;4993087;28;20295;-78
2021/03/22 01:48:53;;;;;;;4.10;2.42;;;3.10;1.00;;;;;;4980936;28;20224;-78
2021/03/22 01:51:21;;;;;;;5.75;2.13;;;3.10;1.00;;;;;;4990485;28;20221;-78
2021/03/22 01:53:47;;;;;;;3.95;2.00;;;3.10;1.00;;;;;;4980658;28;20219;-78
2021/03/22 01:56:27;;;;;;;3.33;1.75;;;3.10;1.00;;;;;;4993219;28;20228;-78
2021/03/22 01:58:55;;;;;;;3.92;1.95;;;3.10;1.00;;;;;;4966962;28;20335;-77
2021/03/22 02:01:23;;;;;;;3.72;2.85;;;3.10;1.00;;;;;;4985687;28;20231;-78
2021/03/22 02:03:50;;;;;;;2.80;2.13;;;3.00;1.00;;;;;;4981329;28;20282;-78
2021/03/22 02:06:16;;;;;;;3.35;2.45;;;3.10;1.00;;;;;;4989808;28;20256;-77
2021/03/22 02:08:44;;;;;;;5.85;2.53;;;3.10;1.00;;;;;;4979943;28;20248;-77
2021/03/22 02:11:17;;;;;;;3.70;2.00;;;3.10;1.00;;;;;;4991372;28;20221;-79
2021/03/22 02:13:44;;;;;;;3.47;2.17;;;3.10;1.00;;;;;;4981084;28;20231;-79
2021/03/22 02:16:15;;;;;;;5.57;2.35;;;3.10;1.00;;;;;;4985715;28;20288;-77
2021/03/22 02:18:56;;;;;;;3.13;2.38;;;3.20;1.00;;;;;;4981752;28;20297;-76
2021/03/22 02:21:57;;;;;;;6.60;2.53;;;3.20;1.00;;;;;;4974960;28;20240;-78
2021/03/22 02:24:49;;;;;;;3.67;2.10;;;3.20;1.00;;;;;;4982031;28;20287;-76
2021/03/22 02:27:48;;;;;;;3.03;2.25;;;3.20;1.00;;;;;;4977617;28;20228;-78
2021/03/22 02:30:43;;;;;;;3.38;2.70;;;3.10;1.00;;;;;;4980411;28;20227;-77
2021/03/22 02:33:27;;;;;;;3.45;2.55;;;3.20;1.00;;;;;;4983506;28;20248;-78
2021/03/22 02:36:04;;;;;;;4.20;2.20;;;3.10;1.00;;;;;;4982318;28;20243;-78
2021/03/22 02:38:34;;;;;;;3.22;2.50;;;3.10;1.00;;;;;;4987473;28;20224;-79
2021/03/22 02:41:05;;;;;;;7.97;2.83;;;3.00;1.00;;;;;;4972274;28;20247;-79
2021/03/22 02:43:35;;;;;;;4.60;2.45;;;3.00;1.00;;;;;;4987987;28;20238;-78
2021/03/22 02:46:02;;;;;;;7.38;3.15;;;2.90;1.00;;;;;;4974625;28;20209;-77
2021/03/22 02:48:30;;;;;;;9.90;3.53;;;2.90;1.00;;;;;;4968505;28;20313;-79
2021/03/22 02:51:04;;;;;;;3.85;3.05;;;2.90;1.00;;;;;;4969904;28;20240;-78
2021/03/22 02:53:43;;;;;;;5.50;2.45;;;2.80;1.00;;;;;;4975465;28;20320;-78
2021/03/22 02:56:19;;;;;;;4.90;2.55;;;2.80;1.00;;;;;;4947818;28;20236;-77
2021/03/22 02:58:54;;;;;;;7.55;3.65;;;2.70;1.00;;;;;;4982224;28;20271;-78
2021/03/22 03:01:25;;;;;;;6.57;2.70;;;2.70;1.00;;;;;;4967467;28;20300;-79
2021/03/22 03:03:55;;;;;;;3.05;2.13;;;2.70;1.00;;;;;;4974135;28;20209;-77
2021/03/22 03:06:40;;;;;;;9.50;3.22;;;2.70;1.00;;;;;;4962986;28;20252;-79
2021/03/22 03:09:06;;;;;;;5.80;2.67;;;2.70;1.00;;;;;;4973207;28;20235;-79
2021/03/22 03:11:32;;;;;;;6.40;2.40;;;2.60;1.00;;;;;;4961464;28;20260;-77
2021/03/22 03:13:59;;;;;;;5.85;2.75;;;2.60;1.00;;;;;;4971545;28;20235;-77
2021/03/22 03:16:25;;;;;;;6.70;3.28;;;2.60;1.00;;;;;;4964388;28;20246;-77
2021/03/22 03:18:52;;;;;;;5.80;2.35;;;2.60;1.00;;;;;;4972247;28;20225;-78
2021/03/22 03:21:18;;;;;;;7.25;3.08;;;2.50;1.00;;;;;;4960633;28;20295;-78
2021/03/22 03:23:45;;;;;;;5.28;2.70;;;2.50;1.00;;;;;;4971417;28;20489;-79
2021/03/22 03:26:11;;;;;;;5.65;2.40;;;2.50;1.00;;;;;;4957763;28;20432;-79
2021/03/22 03:28:37;;;;;;;4.57;2.70;;;2.50;1.00;;;;;;4974249;28;21347;-78
2021/03/22 03:31:04;;;;;;;7.07;3.22;;;2.50;1.00;;;;;;4962024;28;20334;-78
2021/03/22 03:33:30;;;;;;;7.15;3.10;;;2.40;1.00;;;;;;4983960;28;20272;-77
2021/03/22 03:35:57;;;;;;;6.82;2.60;;;2.40;1.00;;;;;;4981341;28;20230;-76
2021/03/22 03:38:24;;;;;;;7.25;2.70;;;2.40;1.00;;;;;;4983578;28;21327;-78
2021/03/22 03:40:51;;;;;;;7.97;3.33;;;2.40;1.00;;;;;;4961652;28;20369;-78
2021/03/22 03:43:18;;;;;;;7.70;2.85;;;2.40;1.00;;;;;;4963237;28;20291;-79
2021/03/22 03:45:47;;;;;;;7.70;2.63;;;2.40;1.00;;;;;;4975762;28;20224;-78
2021/03/22 03:48:15;;;;;;;10.98;4.10;;;2.40;1.00;;;;;;4966558;28;20237;-78
2021/03/22 03:50:42;;;;;;;5.05;2.80;;;2.30;1.00;;;;;;4983846;28;20244;-78
2021/03/22 03:53:09;;;;;;;4.75;3.20;;;2.30;1.00;;;;;;4957347;28;20239;-78
2021/03/22 03:55:35;;;;;;;7.20;2.97;;;2.30;1.00;;;;;;4972837;28;20228;-78
2021/03/22 03:58:03;;;;;;;20.58;11.40;;;2.30;1.00;;;;;;4959584;28;20247;-78
2021/03/22 04:00:32;;;;;;;5.72;2.85;;;2.30;1.00;;;;;;4973097;28;20279;-79
2021/03/22 04:03:13;;;;;;;10.07;3.25;;;2.30;1.00;;;;;;4960760;28;20209;-79
2021/03/22 04:05:39;;;;;;;6.57;2.88;;;2.30;1.00;;;;;;4973923;28;20438;-79
2021/03/22 04:08:05;;;;;;;7.70;2.45;;;2.20;1.00;;;;;;4960152;28;20327;-78
2021/03/22 04:10:32;;;;;;;4.95;2.60;;;2.20;1.00;;;;;;4971642;28;21503;-76
2021/03/22 04:12:58;;;;;;;10.52;3.35;;;2.20;1.00;;;;;;4957774;28;20228;-77
2021/03/22 04:15:25;;;;;;;5.78;2.78;;;2.20;1.00;;;;;;4952566;28;20229;-76
2021/03/22 04:17:52;;;;;;;6.95;2.72;;;2.20;1.00;;;;;;4957965;28;20228;-79
2021/03/22 04:20:19;;;;;;;6.97;3.50;;;2.20;1.00;;;;;;4967605;28;20263;-77
2021/03/22 04:22:46;;;;;;;8.15;3.83;;;2.20;1.00;;;;;;4960144;28;20284;-78
2021/03/22 04:25:14;;;;;;;10.00;3.42;;;2.20;1.00;;;;;;4972808;28;20299;-80
2021/03/22 04:27:40;;;;;;;8.07;4.53;;;2.20;1.00;;;;;;4975700;28;20227;-79
2021/03/22 04:30:09;;;;;;;5.35;3.05;;;2.20;1.00;;;;;;4954719;28;20288;-79
2021/03/22 04:32:37;;;;;;;7.40;4.25;;;2.20;1.00;;;;;;4971308;28;20232;-78
2021/03/22 04:35:05;;;;;;;6.40;3.00;;;2.10;1.00;;;;;;4969360;28;20291;-78
2021/03/22 04:37:31;;;;;;;8.63;3.70;;;2.20;1.00;;;;;;4977125;28;20671;-77
2021/03/22 04:39:58;;;;;;;10.07;3.50;;;2.10;1.00;;;;;;4972291;28;20224;-79
2021/03/22 04:42:24;;;;;;;8.27;3.55;;;2.10;1.00;;;;;;4986385;28;20905;-79
2021/03/22 04:44:51;;;;;;;6.90;3.03;;;2.10;1.00;;;;;;4971747;28;20243;-79
2021/03/22 04:47:17;;;;;;;8.90;3.67;;;2.10;1.00;;;;;;4984000;28;20235;-77
2021/03/22 04:49:44;;;;;;;5.85;3.47;;;2.10;1.00;;;;;;4979717;28;20293;-78
2021/03/22 04:52:10;;;;;;;9.35;3.30;;;2.00;1.00;;;;;;4986251;28;20227;-78
2021/03/22 04:54:37;;;;;;;8.20;3.90;;;2.10;1.00;;;;;;4961175;28;20228;-79
2021/03/22 04:57:11;;;;;;;6.32;4.15;;;2.00;1.00;;;;;;4972940;28;20246;-78
2021/03/22 04:59:38;;;;;;;8.85;3.88;;;2.00;1.00;;;;;;4959473;28;20251;-80
2021/03/22 05:02:05;;;;;;;10.23;3.83;;;2.00;1.00;;;;;;4978997;28;20224;-78
2021/03/22 05:04:31;;;;;;;6.05;3.50;;;2.00;1.00;;;;;;4962260;28;20228;-79
2021/03/22 05:06:58;;;;;;;6.55;3.97;;;2.00;1.00;;;;;;4980014;28;20296;-78
2021/03/22 05:09:25;;;;;;;10.98;5.05;;;2.00;1.00;;;;;;4980473;28;20299;-79
2021/03/22 05:11:51;;;;;;;10.10;3.35;;;2.00;1.00;;;;;;4956928;28;20232;-78
2021/03/22 05:14:18;;;;;;;10.23;3.38;;;2.00;1.00;;;;;;4972674;28;20259;-77
2021/03/22 05:16:45;;;;;;;8.30;4.30;;;2.00;1.00;;;;;;4970489;28;20335;-78
2021/03/22 05:19:11;;;;;;;11.65;5.72;;;1.90;1.00;;;;;;4987668;28;20283;-77
2021/03/22 05:21:37;;;;;;;7.28;3.40;;;1.90;1.00;;;;;;4967777;28;20228;-80
2021/03/22 05:24:05;;;;;;;9.27;4.07;;;2.00;1.00;;;;;;4976711;28;20217;-79
2021/03/22 05:26:31;;;;;;;9.18;3.47;;;2.00;1.00;;;;;;4960999;28;20643;-78
2021/03/22 05:29:00;;;;;;;9.07;3.95;;;2.00;1.00;;;;;;4957968;28;20264;-78
2021/03/22 05:31:27;;;;;;;10.68;4.65;;;2.00;1.00;;;;;;4967978;28;20216;-79
2021/03/22 05:33:53;;;;;;;10.43;3.65;;;2.00;1.00;;;;;;4978313;28;20349;-78
2021/03/22 05:36:20;;;;;;;13.55;5.13;;;2.00;1.00;;;;;;4964863;28;23377;-78
2021/03/22 05:38:46;;;;;;;12.65;6.05;;;2.10;1.00;;;;;;4979439;28;20224;-77
2021/03/22 05:41:19;;;;;;;12.20;4.82;;;2.10;1.00;;;;;;4962669;28;20259;-76
2021/03/22 05:43:57;;;;;;;12.73;5.03;;;2.20;1.00;;;;;;4962699;28;20297;-76
2021/03/22 05:46:45;;;;;;;10.25;4.35;;;2.20;1.00;;;;;;4944703;28;20301;-77
2021/03/22 05:49:23;;;;;;;10.65;4.65;;;2.30;1.00;;;;;;4971178;28;20243;-78
2021/03/22 05:52:07;;;;;;;12.77;3.97;;;2.30;1.00;;;;;;4973479;28;20235;-78
2021/03/22 05:54:54;;;;;;;7.70;3.70;;;2.30;1.00;;;;;;4980495;28;20296;-79
2021/03/22 05:57:31;;;;;;;11.98;4.68;;;2.30;1.00;;;;;;4956437;28;20260;-82
2021/03/22 06:00:06;;;;;;;9.23;3.95;;;2.30;1.00;;;;;;4954080;28;20224;-78
2021/03/22 06:02:39;;;;;;;11.63;5.25;;;2.40;1.00;;;;;;4961522;28;20224;-78
2021/03/22 06:05:10;;;;;;;6.63;4.13;;;2.40;1.00;;;;;;4974779;28;20225;-78
2021/03/22 06:07:44;;;;;;;10.10;4.00;;;2.40;1.00;;;;;;4969823;28;20226;-79
2021/03/22 06:10:16;;;;;;;13.20;4.95;;;2.40;1.00;;;;;;4972731;28;21124;-79
2021/03/22 06:12:48;;;;;;;15.55;5.78;;;2.50;1.00;;;;;;4961391;28;20311;-78
2021/03/22 06:15:27;;;;;;;11.43;5.53;;;2.50;1.00;;;;;;4956620;28;20263;-79
2021/03/22 06:17:59;;;;;;;9.48;4.28;;;2.60;1.00;;;;;;4962737;28;20235;-77
2021/03/22 06:20:29;;;;;;;7.70;4.25;;;2.70;1.00;;;;;;4975914;28;20228;-78
2021/03/22 06:23:02;;;;;;;9.63;5.50;;;2.70;1.00;;;;;;4963075;28;20756;-78
2021/03/22 06:25:30;;;;;;;8.75;5.00;;;2.80;1.00;;;;;;4969662;28;20231;-79
2021/03/22 06:28:05;;;;;;;8.68;5.47;;;2.90;1.00;;;;;;4954689;28;20225;-77
2021/03/22 06:30:32;;;;;;;11.88;5.10;;;3.00;1.00;;;;;;4970909;28;20323;-77
2021/03/22 06:33:01;;;;;;;8.45;4.03;;;3.00;1.00;;;;;;4960488;28;20228;-78
2021/03/22 06:35:33;;;;;;;8.48;4.47;;;3.20;1.00;;;;;;4957344;28;20228;-78
2021/03/22 06:37:59;;;;;;;11.90;5.35;;;3.30;1.00;;;;;;4963081;28;20296;-78
2021/03/22 06:40:31;;;;;;;10.38;5.10;;;3.40;1.00;;;;;;4973503;28;20254;-76
2021/03/22 06:43:09;;;;;;;14.27;5.70;;;3.50;1.00;;;;;;4951260;28;20253;-77
2021/03/22 06:45:38;;;;;;;10.20;4.90;;;3.60;1.00;;;;;;4967383;28;20232;-78
2021/03/22 06:48:24;;;;;;;10.43;4.95;;;3.80;1.00;;;;;;4967839;28;20256;-77
2021/03/22 06:50:54;;;;;;;10.82;4.75;;;4.00;1.00;;;;;;4961317;28;20225;-76
2021/03/22 06:53:35;;;;;;;16.80;5.15;;;4.10;1.00;;;;;;4964059;28;20818;-78
2021/03/22 06:56:14;;;;;;;7.43;4.65;;;4.30;1.00;;;;;;4957615;28;20235;-77
2021/03/22 06:58:42;;;;;;;11.02;4.95;;;4.40;1.00;;;;;;4953800;28;20255;-75
2021/03/22 07:01:19;;;;;;;13.18;5.20;;;4.60;1.00;;;;;;4960031;28;20239;-76
2021/03/22 07:03:46;;;;;;;10.50;5.57;;;4.80;1.00;;;;;;4944693;28;20238;-77
2021/03/22 07:06:17;;;;;;;11.40;5.45;;;4.90;1.00;;;;;;4951457;28;20874;-77
2021/03/22 07:08:44;;;;;;;8.82;4.90;;;5.00;1.00;;;;;;4965863;28;20227;-78
2021/03/22 07:11:13;;;;;;;14.68;5.50;;;5.10;1.00;;;;;;4941731;28;20275;-77
2021/03/22 07:13:53;;;;;;;17.08;5.05;;;5.20;1.00;;;;;;4969034;28;20827;-77
2021/03/22 07:16:23;;;;;;;11.68;5.00;;;5.40;1.00;;;;;;4956045;28;20263;-78
2021/03/22 07:19:16;;;;;;;7.93;3.33;;;5.50;1.00;;;;;;4970249;28;20224;-78
2021/03/22 07:21:49;;;;;;;6.57;3.58;;;5.80;1.00;;;;;;4960467;28;20244;-78
2021/03/22 07:24:20;;;;;;;9.13;4.35;;;5.90;1.00;;;;;;4978014;28;20828;-76
2021/03/22 07:27:21;;;;;;;16.23;5.32;;;6.00;1.00;;;;;;4949483;28;20287;-78
2021/03/22 07:30:06;;;;;;;11.73;3.70;;;6.10;1.00;;;;;;4942290;28;20256;-78
2021/03/22 07:32:46;;;;;;;12.10;5.60;;;6.30;1.00;;;;;;4963149;28;20228;-78
2021/03/22 07:35:36;;;;;;;9.07;3.65;;;6.40;1.00;;;;;;4953573;28;20707;-76
2021/03/22 07:38:10;;;;;;;12.85;4.35;;;6.50;1.00;;;;;;4970911;28;20256;-77
2021/03/22 07:40:49;;;;;;;9.95;3.80;;;6.50;1.00;;;;;;4959531;28;20224;-77
2021/03/22 07:43:40;;;;;;;6.85;3.88;;;6.60;1.00;;;;;;4977252;28;20221;-78
2021/03/22 07:46:20;;;;;;;15.02;5.03;;;6.70;1.00;;;;;;4967912;28;20220;-77
2021/03/22 07:49:01;;;;;;;14.15;4.22;;;6.70;1.00;;;;;;4982308;28;20342;-78
2021/03/22 07:51:41;;;;;;;4.32;2.70;;;6.80;1.00;;;;;;4967330;28;20235;-78
2021/03/22 07:54:21;;;;;;;10.40;3.72;;;7.10;1.00;;;;;;4984181;28;20295;-77
2021/03/22 07:56:53;;;;;;;9.32;4.20;;;7.20;1.00;;;;;;4969855;28;20224;-77
2021/03/22 07:59:33;;;;;;;5.13;3.40;;;7.60;1.00;;;;;;4979809;28;20667;-77
2021/03/22 08:02:21;;;;;;;9.20;3.80;;;7.80;1.00;;;;;;4970590;28;20228;-78
2021/03/22 08:04:53;;;;;;;8.38;4.45;;;7.90;1.00;;;;;;4973267;28;20232;-79
2021/03/22 08:07:34;;;;;;;5.13;3.10;;;8.10;1.00;;;;;;4956871;28;20234;-78
2021/03/22 08:10:40;;;;;;;7.00;3.38;;;8.20;1.00;;;;;;4969902;28;20236;-80
2021/03/22 08:13:30;;;;;;;9.98;3.63;;;8.40;1.00;;;;;;4932743;28;20235;-80
2021/03/22 08:16:09;;;;;;;10.45;4.50;;;8.50;1.00;;;;;;4975188;28;20840;-79
2021/03/22 08:18:41;;;;;;;10.20;4.20;;;8.70;1.00;;;;;;4947558;28;20227;-78
2021/03/22 08:21:11;;;;;;;7.50;2.58;;;8.80;1.00;;;;;;4976781;28;20696;-78
2021/03/22 08:23:47;;;;;;;10.85;3.15;;;9.00;1.00;;;;;;4966353;28;20248;-79
2021/03/22 08:26:21;;;;;;;6.53;2.88;;;9.10;1.00;;;;;;4978962;28;20283;-77
2021/03/22 08:29:02;;;;;;;15.02;6.45;;;9.10;1.00;;;;;;4973216;28;21017;-78
2021/03/22 08:31:36;;;;;;;12.65;4.03;;;9.00;1.00;;;;;;4975812;28;20228;-78
2021/03/22 08:34:09;;;;;;;8.07;3.25;;;9.10;1.00;;;;;;4965351;28;21022;-78
2021/03/22 08:36:47;;;;;;;9.05;4.43;;;9.30;1.00;;;;;;4981841;28;20265;-77
2021/03/22 08:39:23;;;;;;;7.22;2.70;;;9.50;1.00;;;;;;4962818;28;20224;-77
2021/03/22 08:42:00;;;;;;;8.40;3.20;;;9.70;1.00;;;;;;4955679;28;20604;-76
2021/03/22 08:44:30;;;;;;;5.50;2.70;;;9.70;1.00;;;;;;4966868;28;21104;-78
2021/03/22 08:47:10;;;;;;;7.05;2.40;;;9.90;1.00;;;;;;4965493;28;20224;-79
2021/03/22 08:49:45;;;;;;;11.25;4.28;;;10.00;1.00;;;;;;4951324;28;20320;-76
2021/03/22 08:52:20;;;;;;;17.15;3.25;;;10.10;1.00;;;;;;4946984;28;20240;-76
2021/03/22 08:54:46;;;;;;;12.32;3.33;;;10.20;1.00;;;;;;4951596;28;20256;-77
2021/03/22 08:57:21;;;;;;;9.02;3.15;;;10.30;1.00;;;;;;4965379;28;20314;-77
2021/03/22 08:59:49;;;;;;;23.13;3.15;;;10.40;1.00;;;;;;4951818;28;20271;-78
2021/03/22 09:02:26;;;;;;;20.33;3.67;;;10.40;1.00;;;;;;4966018;28;20256;-77
2021/03/22 09:04:55;;;;;;;7.25;2.45;;;10.50;1.00;;;;;;4958485;28;20226;-78
2021/03/22 09:07:32;;;;;;;13.70;3.60;;;10.80;1.00;;;;;;4969385;28;20235;-78
2021/03/22 09:10:26;;;;;;;3.20;2.10;;;11.20;1.00;;;;;;4957833;28;21491;-77
2021/03/22 09:12:53;;;;;;;7.07;2.60;;;11.60;1.00;;;;;;4969197;28;20420;-78
2021/03/22 09:15:22;;;;;;;6.83;2.50;;;11.80;1.00;;;;;;4956214;28;20442;-79
2021/03/22 09:18:14;;;;;;;2.83;2.13;;;12.10;1.00;;;;;;4968461;28;20452;-79
2021/03/22 09:21:19;;;;;;;7.67;2.70;;;12.60;1.00;;;;;;4953001;28;20443;-79
2021/03/22 09:23:47;;;;;;;6.43;2.50;;;13.10;1.00;;;;;;4964974;28;20511;-78
2021/03/22 09:26:13;;;;;;;14.33;6.53;;;13.40;1.00;;;;;;4946688;28;20436;-77
2021/03/22 09:29:12;;;;;;;6.17;2.27;;;13.90;1.00;;;;;;4963473;28;20571;-78
2021/03/22 09:31:44;;;;;;;3.50;2.43;;;14.20;1.00;;;;;;4948598;28;20479;-79
2021/03/22 09:34:34;;;;;;;4.90;2.53;;;14.80;1.00;;;;;;4970752;28;20437;-78
2021/03/22 09:37:39;;;;;;;6.87;2.40;;;15.30;1.00;;;;;;4957938;28;20465;-78
2021/03/22 09:40:10;;;;;;;5.70;2.20;;;15.70;1.00;;;;;;4946058;28;21338;-78
2021/03/22 09:42:36;;;;;;;8.70;2.73;;;15.70;1.00;;;;;;4966020;28;20564;-79
2021/03/22 09:45:15;;;;;;;5.47;3.53;;;16.30;1.00;;;;;;4968186;28;20466;-79
2021/03/22 09:47:42;;;;;;;4.17;2.57;;;17.00;1.00;;;;;;4965661;28;20470;-80
2021/03/22 09:50:24;;;;;;;3.80;1.90;;;17.50;1.00;;;;;;4966834;28;20554;-79
2021/03/22 09:53:14;;;;;;;3.17;1.90;;;17.90;1.00;;;;;;4964987;28;20558;-77
2021/03/22 09:55:54;;;;;;;4.47;2.37;;;18.00;1.00;;;;;;4956929;28;20462;-78
2021/03/22 09:58:39;;;;;;;4.30;2.53;;;18.30;1.00;;;;;;4966778;28;20455;-78
2021/03/22 10:01:14;;;;;;;7.03;2.93;;;19.40;1.00;;;;;;4938488;28;20435;-79
2021/03/22 10:04:05;;;;;;;6.53;2.67;;;20.10;1.00;;;;;;4978789;28;20544;-79
2021/03/22 10:06:58;;;;;;;5.57;2.07;;;20.90;1.00;;;;;;4967865;28;20460;-78
2021/03/22 10:09:30;;;;;;;4.93;2.70;;;21.50;1.00;;;;;;4963055;28;20438;-79
2021/03/22 10:11:58;;;;;;;3.17;2.00;;;22.20;1.00;;;;;;4954408;28;21375;-77
2021/03/22 10:14:36;;;;;;;4.00;2.50;;;22.60;1.00;;;;;;4945607;28;20438;-78
2021/03/22 10:17:04;;;;;;;2.43;1.73;;;22.80;1.00;;;;;;4953974;28;20513;-78
2021/03/22 10:19:35;;;;;;;6.00;1.97;;;22.50;1.00;;;;;;4963452;28;20454;-78
2021/03/22 10:22:05;;;;;;;3.20;1.70;;;22.50;1.00;;;;;;4953944;28;20453;-78
2021/03/22 10:24:45;;;;;;;3.20;2.00;;;22.90;1.00;;;;;;4970205;28;20451;-76
2021/03/22 10:27:26;;;;;;;4.53;2.50;;;22.70;1.00;;;;;;4955235;28;21103;-78
2021/03/22 10:30:06;;;;;;;4.30;2.10;;;23.00;1.00;;;;;;4968768;28;20439;-75
2021/03/22 10:32:32;;;;;;;2.40;1.50;;;23.70;1.00;;;;;;4948464;28;20565;-75
2021/03/22 10:35:07;;;;;;;6.07;2.43;;;24.20;1.00;;;;;;4968802;28;21005;-76
2021/03/22 10:37:40;;;;;;;5.63;2.63;;;24.50;1.00;;;;;;4951722;28;21618;-75
2021/03/22 10:40:20;;;;;;;4.00;2.43;;;24.40;1.00;;;;;;4964557;28;20454;-77
2021/03/22 10:42:48;;;;;;;4.03;2.57;;;24.50;1.00;;;;;;4947838;28;20481;-78
2021/03/22 10:45:31;;;;;;;7.50;2.20;;;24.60;1.00;;;;;;4964370;28;20482;-76
2021/03/22 10:47:59;;;;;;;24.40;21.50;;;24.60;1.00;;;;;;4954007;28;20844;-77
2021/03/22 10:50:30;;;;;;;3.00;1.47;;;25.00;1.00;;;;;;4968364;28;20443;-76
2021/03/22 10:53:06;;;;;;;2.40;1.20;;;25.20;1.00;;;;;;4954916;28;20468;-77
2021/03/22 10:55:34;;;;;;;3.47;2.33;;;25.50;1.00;;;;;;4968505;28;20416;-77
2021/03/22 10:58:01;;;;;;;5.63;2.10;;;26.10;1.00;;;;;;4965361;28;20437;-76
2021/03/22 11:00:31;;;;;;;7.97;3.43;;;26.10;1.00;;;;;;4958023;28;20460;-75
2021/03/22 11:03:00;;;;;;;2.33;1.50;;;25.80;1.00;;;;;;4961300;28;21304;-77
2021/03/22 11:05:30;;;;;;;2.67;1.40;;;26.50;1.00;;;;;;4941213;28;20473;-77
2021/03/22 11:07:59;;;;;;;6.90;2.77;;;26.70;1.00;;;;;;4967260;28;20471;-78
2021/03/22 11:10:26;;;;;;;3.40;1.70;;;26.40;1.00;;;;;;4952724;28;20452;-77
2021/03/22 11:12:54;;;;;;;2.40;1.03;;;26.10;1.00;;;;;;4949929;28;20474;-79
2021/03/22 11:15:25;;;;;;;3.77;2.10;;;26.00;1.00;;;;;;4945139;28;20414;-76
2021/03/22 11:17:51;;;;;;;3.30;1.87;;;26.20;1.00;;;;;;4963762;28;20500;-77
2021/03/22 11:20:20;;;;;;;5.30;2.33;;;26.40;1.00;;;;;;4951058;28;21203;-77
2021/03/22 11:22:48;;;;;;;6.27;2.20;;;26.00;1.00;;;;;;4962879;28;20460;-78
2021/03/22 11:25:34;;;;;;;9.30;2.60;;;26.20;1.00;;;;;;4935498;28;20533;-76
2021/03/22 11:28:04;;;;;;;4.00;1.00;;;25.60;1.00;;;;;;4964190;28;20470;-78
2021/03/22 11:30:34;;;;;;;4.03;1.37;;;25.40;1.00;;;;;;4952811;28;20461;-78
2021/03/22 11:33:12;;;;;;;2.80;1.37;;;25.90;1.00;;;;;;4964020;28;20947;-78
2021/03/22 11:35:38;;;;;;;2.53;1.17;;;25.90;1.00;;;;;;4949632;28;20872;-77
2021/03/22 11:38:05;;;;;;;4.73;2.03;;;26.00;1.00;;;;;;4963100;28;20468;-79
2021/03/22 11:40:33;;;;;;;3.50;1.90;;;26.40;1.00;;;;;;4947263;28;20446;-77
2021/03/22 11:43:03;;;;;;;4.90;2.10;;;26.50;1.00;;;;;;4961725;28;20455;-79
2021/03/22 11:45:34;;;;;;;4.00;1.77;;;26.60;1.00;;;;;;4952918;28;20487;-77
2021/03/22 11:48:01;;;;;;;2.60;1.60;;;26.30;1.00;;;;;;4963040;28;20970;-77
2021/03/22 11:50:35;;;;;;;1.50;1.10;;;26.80;1.00;;;;;;4952429;28;20469;-76
2021/03/22 11:53:07;;;;;;;5.43;2.13;;;27.40;1.00;;;;;;4962710;28;22797;-77
2021/03/22 11:55:37;;;;;;;2.87;1.53;;;27.00;1.00;;;;;;4952541;28;23862;-78
2021/03/22 11:58:05;;;;;;;3.70;2.17;;;27.50;1.00;;;;;;4965823;28;20463;-78
2021/03/22 12:00:35;;;;;;;3.63;1.60;;;27.60;1.00;;;;;;4950459;28;20495;-77
2021/03/22 12:03:08;;;;;;;4.13;2.10;;;27.80;1.00;;;;;;4962485;28;20449;-78
2021/03/22 12:05:37;;;;;;;8.30;3.10;;;28.00;1.00;;;;;;4955652;28;20450;-79
2021/03/22 12:08:32;;;;;;;5.87;2.70;;;28.60;1.00;;;;;;4975909;28;20489;-77
2021/03/22 12:10:59;;;;;;;1.87;1.13;;;28.70;1.00;;;;;;4961842;28;20914;-75
2021/03/22 12:13:26;;;;;;;7.17;2.70;;;29.20;1.00;;;;;;4975240;28;20418;-77
2021/03/22 12:15:52;;;;;;;7.67;3.00;;;29.10;1.00;;;;;;4980547;28;20421;-77
2021/03/22 12:18:23;;;;;;;5.97;2.70;;;29.00;1.00;;;;;;4973297;28;20499;-77
2021/03/22 12:20:49;;;;;;;2.53;1.73;;;29.30;1.00;;;;;;4987762;28;20429;-79
2021/03/22 12:23:16;;;;;;;4.20;2.17;;;29.30;1.00;;;;;;4974185;28;20447;-77
2021/03/22 12:25:42;;;;;;;4.83;2.77;;;29.20;1.00;;;;;;4987550;28;20489;-76
2021/03/22 12:28:08;;;;;;;3.77;2.00;;;29.20;1.00;;;;;;4954017;28;20472;-78
2021/03/22 12:30:35;;;;;;;3.90;2.03;;;29.80;1.00;;;;;;4968417;28;20467;-78
2021/03/22 12:33:02;;;;;;;5.90;2.23;;;30.10;1.00;;;;;;4957871;28;20465;-78
2021/03/22 12:35:30;;;;;;;9.50;3.20;;;30.30;1.00;;;;;;4972906;28;20433;-78
2021/03/22 12:37:57;;;;;;;2.77;1.23;;;30.50;1.00;;;;;;4973556;28;20609;-75
2021/03/22 12:40:24;;;;;;;7.30;2.73;;;31.00;1.00;;;;;;4972761;28;20405;-75
2021/03/22 12:42:50;;;;;;;4.80;1.60;;;31.00;1.00;;;;;;4958584;28;21383;-74
2021/03/22 12:45:21;;;;;;;7.37;2.30;;;30.20;1.00;;;;;;4969116;28;20401;-75
2021/03/22 12:47:49;;;;;;;2.33;1.53;;;29.50;1.00;;;;;;4969350;28;20477;-74
2021/03/22 12:50:20;;;;;;;2.87;1.60;;;29.20;1.00;;;;;;4968531;28;20471;-75
2021/03/22 12:52:49;;;;;;;4.53;1.63;;;29.40;1.00;;;;;;4951558;28;20459;-74
2021/03/22 12:55:15;;;;;;;6.73;2.57;;;29.20;1.00;;;;;;4971233;28;20551;-76
2021/03/22 12:57:42;;;;;;;2.10;1.27;;;29.60;1.00;;;;;;4946551;28;20985;-75
2021/03/22 13:00:11;;;;;;;12.20;3.70;;;29.20;1.00;;;;;;4955129;28;20431;-75
2021/03/22 13:02:37;;;;;;;5.27;2.33;;;28.40;1.00;;;;;;4958231;28;20540;-77
2021/03/22 13:05:16;;;;;;;3.60;1.50;;;27.60;1.00;;;;;;4939973;28;20541;-77
2021/03/22 13:07:42;;;;;;;2.50;1.50;;;28.10;1.00;;;;;;4959779;28;20464;-78
2021/03/22 13:10:10;;;;;;;4.17;2.03;;;28.30;1.00;;;;;;4943025;28;20473;-77
2021/03/22 13:12:36;;;;;;;3.20;1.90;;;28.60;1.00;;;;;;4961498;28;21468;-77
2021/03/22 13:15:05;;;;;;;3.47;1.83;;;28.00;1.00;;;;;;4945906;28;20467;-78
2021/03/22 13:17:33;;;;;;;4.17;1.50;;;28.20;1.00;;;;;;4956424;28;20532;-80
2021/03/22 13:20:00;;;;;;;9.87;5.33;;;27.40;1.00;;;;;;4954527;28;20473;-75
2021/03/22 13:22:29;;;;;;;3.37;2.50;;;26.30;1.00;;;;;;4967329;28;20464;-76
2021/03/22 13:24:55;;;;;;;4.80;2.27;;;25.10;1.00;;;;;;4949406;28;21295;-78
2021/03/22 13:27:23;;;;;;;2.67;1.73;;;23.80;1.00;;;;;;4943144;28;20467;-76